9 de Julio, Argentina
Current Conditions -  °F | °C
As of 4:00 AM on Monday 22 Dec 2014 (Local Time) from SARC Reporting Station
Overcast Overcast  
Wind Chill: 66°   Ceiling: 10000
Heat Index: 66°   Visibility: 6mi
Dew Point: 57°   Wind: 13mph
Humidity: 73%   Direction: 160°SSE
Pressure: 29.91"   Gusts: NA
Location:  28.83°S, 58.83°W
Report Text: SARC 220700Z 16011KT 9999 FEW015 OVC10019/14 Q1013
Loading
Personal Weather Stations






























Interactive Weather Map New forecast layout! Learn more

10-Day Weather Forecast

Advertisements
Track Severe Weather on mobile